Time;durP1;ratioP1;P1;durP2;ratioP2;P2;SDS_P1;SDS_P2;PMS_P1;PMS_P2;Temp;Humidity;BMP_temperature;BMP_pressure;BME280_temperature;BME280_humidity;BME280_pressure;Samples;Min_cycle;Max_cycle;Signal;HPM_P1;HPM_P2
2022/09/09 00:02:23;;;;;;;8.98;2.58;;;;;;;16.47;76.88;100705.00;4978931;28;20092;-61
2022/09/09 00:05:03;;;;;;;8.55;3.00;;;;;;;16.49;76.45;100705.00;4968061;28;20035;-61
2022/09/09 00:07:46;;;;;;;8.63;2.83;;;;;;;16.49;76.49;100705.84;4973632;28;20135;-61
2022/09/09 00:10:20;;;;;;;7.63;2.50;;;;;;;16.45;76.68;100704.13;4974081;28;20574;-61
2022/09/09 00:12:56;;;;;;;8.63;2.50;;;;;;;16.42;76.14;100706.75;4978182;28;20058;-61
2022/09/09 00:15:26;;;;;;;7.15;2.70;;;;;;;16.42;76.49;100703.25;4972133;28;20691;-61
2022/09/09 00:18:09;;;;;;;7.78;2.55;;;;;;;16.40;76.37;100703.25;4985821;28;20063;-61
2022/09/09 00:20:50;;;;;;;6.63;2.35;;;;;;;16.39;76.78;100700.63;4972338;28;20027;-61
2022/09/09 00:23:24;;;;;;;5.25;2.67;;;;;;;16.34;77.24;100698.03;4976455;28;20034;-61
2022/09/09 00:26:04;;;;;;;7.15;2.40;;;;;;;16.34;76.29;100692.78;4974120;28;20029;-61
2022/09/09 00:28:33;;;;;;;5.70;2.45;;;;;;;16.26;77.74;100705.03;4978249;28;20097;-61
2022/09/09 00:31:10;;;;;;;;;;;;;;;16.33;75.55;100697.13;4969184;28;20034;-61
2022/09/09 00:33:36;;;;;;;8.02;2.50;;;;;;;16.26;76.97;100699.78;4967175;28;19918;-61
2022/09/09 00:36:02;;;;;;;6.22;2.55;;;;;;;16.23;77.26;100700.66;4970982;28;20045;-61
2022/09/09 00:38:36;;;;;;;6.28;2.50;;;;;;;16.21;76.90;100693.69;4952103;28;20046;-61
2022/09/09 00:41:31;;;;;;;6.65;2.72;;;;;;;16.23;76.30;100694.53;4980820;28;20022;-61
2022/09/09 00:44:01;;;;;;;6.75;2.50;;;;;;;16.22;76.53;100692.78;4961292;28;20540;-61
2022/09/09 00:46:47;;;;;;;7.38;2.70;;;;;;;16.23;76.42;100684.03;4976263;28;20490;-61
2022/09/09 00:49:31;;;;;;;6.65;2.75;;;;;;;16.19;76.82;100677.88;4974780;28;20034;-61
2022/09/09 00:52:18;;;;;;;7.45;2.60;;;;;;;16.20;77.18;100673.53;4973536;28;20501;-61
2022/09/09 00:55:02;;;;;;;6.50;2.63;;;;;;;16.17;76.98;100670.00;4965055;28;20086;-61
2022/09/09 00:57:36;;;;;;;8.70;3.05;;;;;;;16.16;77.07;100672.63;4971620;28;20102;-65
2022/09/09 01:00:21;;;;;;;6.60;2.55;;;;;;;16.16;76.55;100668.28;4973306;28;20022;-65
2022/09/09 01:02:52;;;;;;;5.38;2.65;;;;;;;16.14;76.80;100675.28;4967220;28;20026;-65
2022/09/09 01:05:33;;;;;;;7.35;3.08;;;;;;;16.11;76.71;100670.03;4971085;28;20088;-65
2022/09/09 01:08:02;;;;;;;6.25;2.55;;;;;;;16.10;76.70;100678.78;4975606;28;20031;-66
2022/09/09 01:10:46;;;;;;;8.05;2.63;;;;;;;16.06;76.80;100671.81;4976704;28;20023;-66
2022/09/09 01:13:23;;;;;;;6.25;2.53;;;;;;;16.04;76.85;100672.69;4967448;28;20309;-65
2022/09/09 01:15:50;;;;;;;10.50;3.00;;;;;;;16.01;77.47;100668.28;4969019;28;20057;-66
2022/09/09 01:18:20;;;;;;;7.85;3.40;;;;;;;15.99;77.19;100668.31;4972152;28;20031;-65
2022/09/09 01:21:09;;;;;;;7.30;2.83;;;;;;;16.00;77.44;100666.53;4968875;28;20639;-65
2022/09/09 01:24:16;;;;;;;5.82;2.40;;;;;;;15.99;77.10;100665.66;4976442;28;20038;-65
2022/09/09 01:26:43;;;;;;;8.10;2.60;;;;;;;16.00;77.62;100666.53;4970878;28;20085;-62
2022/09/09 01:29:13;;;;;;;7.32;2.92;;;;;;;15.97;77.68;100662.19;4967738;28;20046;-61
2022/09/09 01:31:52;;;;;;;9.40;3.13;;;;;;;15.97;77.61;100666.53;4977937;28;20023;-61
2022/09/09 01:34:18;;;;;;;7.00;3.05;;;;;;;15.94;77.93;100666.56;4967574;28;20073;-61
2022/09/09 01:37:01;;;;;;;8.77;3.35;;;;;;;15.94;77.58;100662.16;4973586;28;20029;-61
2022/09/09 01:39:27;;;;;;;9.90;3.33;;;;;;;15.91;78.21;100658.69;4979050;28;20026;-61
2022/09/09 01:41:55;;;;;;;9.43;3.45;;;;;;;15.87;78.27;100664.81;4969416;28;20101;-61
2022/09/09 01:44:21;;;;;;;8.68;3.30;;;;;;;15.85;78.32;100653.44;4970623;28;20034;-61
2022/09/09 01:46:47;;;;;;;10.65;3.75;;;;;;;15.84;78.28;100649.06;4969789;28;20029;-61
2022/09/09 01:49:12;;;;;;;8.43;3.90;;;;;;;15.80;78.20;100653.41;4970809;28;20039;-62
2022/09/09 01:51:41;;;;;;;10.45;3.50;;;;;;;15.77;78.59;100641.16;4965094;28;20034;-61
2022/09/09 01:54:07;;;;;;;7.57;3.50;;;;;;;15.77;78.81;100654.28;4973319;28;21072;-61
2022/09/09 01:56:47;;;;;;;10.20;3.53;;;;;;;15.76;79.07;100647.28;4970202;28;20031;-65
2022/09/09 01:59:20;;;;;;;8.43;3.65;;;;;;;15.77;78.47;100649.03;4961823;28;20394;-66
2022/09/09 02:01:55;;;;;;;10.88;3.92;;;;;;;15.74;78.87;100648.16;4974480;28;20078;-65
2022/09/09 02:04:32;;;;;;;8.20;3.65;;;;;;;15.68;79.18;100645.53;4968401;28;20057;-65
2022/09/09 02:06:57;;;;;;;8.85;3.72;;;;;;;15.63;78.58;100641.16;4973718;28;20026;-65
2022/09/09 02:09:26;;;;;;;11.30;3.70;;;;;;;15.62;78.67;100638.53;4969601;28;20145;-65
2022/09/09 02:12:00;;;;;;;10.75;3.90;;;;;;;15.61;78.86;100631.50;4981290;28;20101;-65
2022/09/09 02:14:34;;;;;;;10.95;4.05;;;;;;;15.62;78.26;100634.13;4974104;28;20027;-65
2022/09/09 02:17:07;;;;;;;12.75;4.10;;;;;;;15.56;78.52;100634.16;4972043;28;20026;-65
2022/09/09 02:19:36;;;;;;;11.18;4.32;;;;;;;15.55;78.60;100628.91;4975355;28;20026;-66
2022/09/09 02:22:02;;;;;;;11.68;4.03;;;;;;;15.56;78.96;100634.16;4969757;28;20038;-65
2022/09/09 02:24:33;;;;;;;10.63;4.13;;;;;;;15.56;78.82;100638.53;4967767;28;20034;-65
2022/09/09 02:27:01;;;;;;;10.85;4.43;;;;;;;15.53;79.78;100633.28;4971939;28;20274;-64
2022/09/09 02:29:31;;;;;;;11.75;4.75;;;;;;;15.48;80.23;100631.53;4970475;28;20061;-65
2022/09/09 02:32:00;;;;;;;12.70;4.80;;;;;;;15.47;80.24;100634.16;4957715;28;20042;-65
2022/09/09 02:34:28;;;;;;;18.95;5.47;;;;;;;15.50;79.75;100630.63;4966223;28;20058;-66
2022/09/09 02:36:56;;;;;;;10.32;4.68;;;;;;;15.48;79.71;100626.28;4969481;28;20031;-65
2022/09/09 02:39:22;;;;;;;10.10;4.10;;;;;;;15.50;79.49;100626.28;4947617;28;20038;-65
2022/09/09 02:41:47;;;;;;;14.25;4.68;;;;;;;15.49;79.32;100627.16;4974151;28;20019;-64
2022/09/09 02:44:18;;;;;;;18.45;4.70;;;;;;;15.46;79.64;100622.78;4974608;28;20030;-65
2022/09/09 02:47:01;;;;;;;11.52;4.85;;;;;;;15.47;79.38;100623.66;4969911;28;20038;-64
2022/09/09 02:49:52;;;;;;;16.08;4.45;;;;;;;15.45;80.29;100620.16;4987419;28;20139;-65
2022/09/09 02:52:22;;;;;;;11.20;4.57;;;;;;;15.46;79.85;100620.13;4935312;28;20046;-65
2022/09/09 02:54:54;;;;;;;11.40;4.50;;;;;;;15.44;79.31;100618.41;4967142;28;20042;-66
2022/09/09 02:57:25;;;;;;;14.20;4.97;;;;;;;15.41;80.06;100624.53;4970743;28;20050;-65
2022/09/09 02:59:51;;;;;;;15.65;4.50;;;;;;;15.42;79.95;100628.03;4973276;28;20037;-65
2022/09/09 03:02:18;;;;;;;14.98;4.40;;;;;;;15.38;80.27;100629.78;4969530;28;20082;-65
2022/09/09 03:04:44;;;;;;;12.88;4.80;;;;;;;15.38;80.16;100635.03;4974398;28;20057;-65
2022/09/09 03:07:11;;;;;;;15.48;4.85;;;;;;;15.37;79.65;100635.03;4977294;28;20118;-65
2022/09/09 03:09:36;;;;;;;12.52;4.30;;;;;;;15.35;80.05;100635.03;4973561;28;20030;-65
2022/09/09 03:12:04;;;;;;;12.52;4.70;;;;;;;15.32;79.78;100629.75;4972019;28;20163;-65
2022/09/09 03:14:30;;;;;;;10.55;4.07;;;;;;;15.32;80.01;100628.91;4975327;28;20042;-65
2022/09/09 03:16:57;;;;;;;18.05;4.78;;;;;;;15.30;80.03;100629.75;4975491;28;20038;-65
2022/09/09 03:19:23;;;;;;;12.85;4.60;;;;;;;15.29;80.52;100635.00;4978287;28;20081;-65
2022/09/09 03:21:49;;;;;;;11.05;4.20;;;;;;;15.30;80.47;100634.16;4973406;28;20026;-65
2022/09/09 03:24:14;;;;;;;10.48;4.40;;;;;;;15.31;80.65;100643.78;4978854;28;20034;-65
2022/09/09 03:26:41;;;;;;;13.10;3.95;;;;;;;15.29;81.18;100645.53;4975546;28;20037;-60
2022/09/09 03:29:07;;;;;;;13.57;4.32;;;;;;;15.26;81.43;100643.75;4975374;28;20038;-60
2022/09/09 03:31:33;;;;;;;11.40;4.47;;;;;;;15.27;81.35;100639.41;4971529;28;20050;-60
2022/09/09 03:33:59;;;;;;;11.93;4.60;;;;;;;15.26;81.78;100635.03;4973187;28;20030;-60
2022/09/09 03:36:26;;;;;;;13.82;4.63;;;;;;;15.29;81.46;100640.25;4972234;28;20104;-60
2022/09/09 03:38:51;;;;;;;11.93;4.75;;;;;;;15.27;81.70;100634.16;4976541;28;20026;-60
2022/09/09 03:41:18;;;;;;;15.50;4.28;;;;;;;15.28;81.64;100639.41;4970540;28;20065;-60
2022/09/09 03:43:43;;;;;;;13.02;4.28;;;;;;;15.26;80.95;100629.75;4958602;28;20030;-60
2022/09/09 03:46:08;;;;;;;13.50;4.32;;;;;;;15.25;81.25;100628.91;4972815;28;20027;-60
2022/09/09 03:48:34;;;;;;;11.10;3.92;;;;;;;15.24;81.88;100634.16;4981270;28;20031;-60
2022/09/09 03:51:01;;;;;;;15.77;4.40;;;;;;;15.22;82.36;100633.25;4969924;28;20042;-60
2022/09/09 03:53:26;;;;;;;12.30;4.10;;;;;;;15.20;82.08;100630.63;4987054;28;20105;-61
2022/09/09 03:55:54;;;;;;;11.45;4.03;;;;;;;15.21;82.27;100629.78;4978711;28;20113;-61
2022/09/09 03:58:20;;;;;;;13.20;4.47;;;;;;;15.18;82.50;100634.13;4990031;28;20080;-61
2022/09/09 04:00:57;;;;;;;12.35;4.30;;;;;;;15.13;82.77;100629.78;4975925;28;20446;-61
2022/09/09 04:03:24;;;;;;;14.50;4.22;;;;;;;15.14;82.50;100633.25;4969903;28;20506;-60
2022/09/09 04:05:54;;;;;;;14.38;4.30;;;;;;;15.11;83.35;100625.38;4974049;28;20030;-60
2022/09/09 04:08:21;;;;;;;14.75;4.93;;;;;;;15.08;83.90;100622.75;4976888;28;20096;-65
2022/09/09 04:10:49;;;;;;;12.20;3.83;;;;;;;15.07;83.82;100619.25;4970737;28;20069;-65
2022/09/09 04:13:17;;;;;;;19.60;4.85;;;;;;;15.07;83.47;100619.25;4965160;28;20538;-65
2022/09/09 04:15:43;;;;;;;14.60;4.70;;;;;;;15.05;83.94;100614.88;4972883;28;20129;-65
2022/09/09 04:18:08;;;;;;;16.48;4.90;;;;;;;15.02;84.32;100621.00;4953012;28;20027;-65
2022/09/09 04:20:33;;;;;;;13.73;4.63;;;;;;;15.04;83.43;100621.88;4985790;28;20548;-65
2022/09/09 04:22:59;;;;;;;16.65;4.63;;;;;;;15.04;84.33;100624.50;4972843;28;20105;-64
2022/09/09 04:25:24;;;;;;;18.10;4.97;;;;;;;15.01;84.37;100624.50;4986412;28;20097;-64
2022/09/09 04:27:57;;;;;;;11.77;4.90;;;;;;;15.01;83.79;100613.13;4969998;28;20109;-65
2022/09/09 04:30:24;;;;;;;19.85;5.05;;;;;;;15.00;84.76;100617.47;4976779;28;20496;-66
2022/09/09 04:32:50;;;;;;;15.80;5.28;;;;;;;15.00;84.21;100617.47;4980353;28;20403;-65
2022/09/09 04:35:15;;;;;;;18.38;5.10;;;;;;;14.99;85.07;100615.75;4972572;28;20031;-65
2022/09/09 04:37:41;;;;;;;19.73;7.90;;;;;;;15.00;84.87;100614.00;4975967;28;20027;-61
2022/09/09 04:40:09;;;;;;;25.38;6.80;;;;;;;14.99;85.05;100605.25;4975737;28;20054;-61
2022/09/09 04:42:35;;;;;;;18.17;5.30;;;;;;;14.99;84.49;100607.88;4969104;28;20026;-61
2022/09/09 04:45:01;;;;;;;17.40;4.97;;;;;;;15.01;84.29;100610.50;4975498;28;20030;-61
2022/09/09 04:47:26;;;;;;;14.25;4.70;;;;;;;15.01;84.67;100608.75;4973796;28;20042;-61
2022/09/09 04:49:54;;;;;;;15.40;4.70;;;;;;;15.02;84.37;100610.50;4974598;28;20076;-61
2022/09/09 04:52:19;;;;;;;17.17;5.10;;;;;;;15.01;84.58;100608.75;4984860;28;20030;-61
2022/09/09 04:54:45;;;;;;;18.20;5.00;;;;;;;15.01;84.58;100606.13;4970705;28;20037;-61
2022/09/09 04:57:10;;;;;;;12.60;4.97;;;;;;;15.00;84.83;100596.50;4970969;28;20027;-61
2022/09/09 04:59:36;;;;;;;14.20;4.72;;;;;;;15.00;84.57;100596.50;4978103;28;20027;-60
2022/09/09 05:02:01;;;;;;;15.20;5.28;;;;;;;15.01;85.07;100598.25;4969138;28;20027;-60
2022/09/09 05:04:28;;;;;;;18.35;4.68;;;;;;;15.01;84.80;100602.63;4972061;28;20031;-60
2022/09/09 05:06:54;;;;;;;16.92;5.82;;;;;;;15.00;85.36;100600.88;4971597;28;20050;-61
2022/09/09 05:09:19;;;;;;;13.43;5.18;;;;;;;14.98;85.50;100598.25;4971672;28;20061;-60
2022/09/09 05:11:44;;;;;;;17.02;5.10;;;;;;;14.99;85.44;100606.97;4971462;28;20039;-60
2022/09/09 05:14:11;;;;;;;14.43;4.80;;;;;;;15.00;85.29;100601.75;4973874;28;20557;-60
2022/09/09 05:16:37;;;;;;;15.70;4.80;;;;;;;15.00;85.66;100593.88;4970397;28;20010;-60
2022/09/09 05:19:03;;;;;;;14.30;4.60;;;;;;;15.01;85.43;100606.13;4975134;28;20449;-61
2022/09/09 05:21:30;;;;;;;13.45;4.55;;;;;;;15.00;85.20;100596.50;4979200;28;20487;-60
2022/09/09 05:23:55;;;;;;;15.57;5.25;;;;;;;15.01;85.00;100595.63;4979650;28;20133;-61
2022/09/09 05:26:22;;;;;;;10.38;4.28;;;;;;;15.00;85.55;100596.50;4982707;28;20557;-60
2022/09/09 05:28:48;;;;;;;14.00;4.90;;;;;;;15.01;85.38;100593.00;4972375;28;20123;-60
2022/09/09 05:31:15;;;;;;;16.88;5.22;;;;;;;15.00;85.83;100595.63;4973963;28;20117;-61
2022/09/09 05:33:42;;;;;;;13.82;4.22;;;;;;;14.99;85.72;100584.28;4976776;28;20491;-60
2022/09/09 05:36:17;;;;;;;14.95;4.95;;;;;;;14.97;86.04;100580.75;4984953;28;20062;-64
2022/09/09 05:38:43;;;;;;;11.63;4.20;;;;;;;14.95;86.19;100590.38;4966934;28;20486;-64
2022/09/09 05:41:10;;;;;;;14.60;4.55;;;;;;;14.93;86.72;100589.47;4964966;28;20102;-64
2022/09/09 05:43:37;;;;;;;11.40;4.40;;;;;;;14.92;86.81;100600.88;4942175;28;20741;-65
2022/09/09 05:46:11;;;;;;;15.50;4.70;;;;;;;14.92;86.52;100601.72;4961905;28;20063;-65
2022/09/09 05:48:38;;;;;;;13.15;5.07;;;;;;;14.93;86.82;100605.22;4969591;28;20030;-64
2022/09/09 05:51:06;;;;;;;13.63;3.60;;;;;;;14.91;86.90;100607.84;4976585;28;20037;-64
2022/09/09 05:53:33;;;;;;;14.30;4.22;;;;;;;14.91;87.35;100610.47;4978231;28;20030;-64
2022/09/09 05:56:04;;;;;;;12.85;3.78;;;;;;;14.93;86.60;100605.22;4961530;28;20045;-65
2022/09/09 05:58:33;;;;;;;12.98;4.60;;;;;;;14.95;87.49;100614.00;4968241;28;20170;-65
2022/09/09 06:01:07;;;;;;;12.10;3.75;;;;;;;14.93;87.53;100619.25;4969225;28;20024;-65
2022/09/09 06:03:35;;;;;;;12.82;3.83;;;;;;;14.94;87.12;100609.59;4975013;28;20026;-65
2022/09/09 06:06:05;;;;;;;11.05;3.78;;;;;;;14.92;87.49;100611.38;4973579;28;20180;-64
2022/09/09 06:08:31;;;;;;;14.13;4.10;;;;;;;14.93;87.53;100618.34;4981835;28;20026;-60
2022/09/09 06:11:02;;;;;;;9.98;3.60;;;;;;;14.92;88.02;100614.00;4969893;28;20041;-60
2022/09/09 06:13:28;;;;;;;10.68;3.53;;;;;;;14.92;88.13;100616.63;4972779;28;20113;-61
2022/09/09 06:15:54;;;;;;;13.63;3.83;;;;;;;14.91;88.46;100615.72;4974667;28;20109;-60
2022/09/09 06:18:19;;;;;;;12.48;3.40;;;;;;;14.95;88.41;100620.09;4971986;28;20453;-61
2022/09/09 06:20:58;;;;;;;14.52;3.70;;;;;;;14.96;88.39;100613.09;4971279;28;20022;-61
2022/09/09 06:23:25;;;;;;;10.25;3.60;;;;;;;15.01;88.62;100621.00;4964977;28;20042;-60
2022/09/09 06:25:50;;;;;;;13.55;3.70;;;;;;;15.04;88.89;100613.13;4966358;28;20027;-60
2022/09/09 06:28:17;;;;;;;11.18;3.72;;;;;;;15.06;89.07;100607.03;4973714;28;20034;-61
2022/09/09 06:30:42;;;;;;;12.25;3.58;;;;;;;15.10;89.24;100613.13;4964558;28;20110;-61
2022/09/09 06:33:09;;;;;;;11.77;3.40;;;;;;;15.12;88.16;100614.88;4950290;28;20193;-61
2022/09/09 06:35:34;;;;;;;10.23;3.55;;;;;;;15.11;87.96;100615.75;4968176;28;20026;-61
2022/09/09 06:37:59;;;;;;;12.43;3.33;;;;;;;15.15;87.70;100615.75;4971700;28;20027;-60
2022/09/09 06:40:24;;;;;;;8.45;3.50;;;;;;;15.13;88.48;100613.13;4967873;28;20051;-61
2022/09/09 06:42:50;;;;;;;10.35;3.83;;;;;;;15.16;88.17;100617.50;4951331;28;20048;-60
2022/09/09 06:45:15;;;;;;;11.77;3.72;;;;;;;15.18;88.36;100607.88;4951540;28;20070;-61
2022/09/09 06:47:41;;;;;;;10.90;3.67;;;;;;;15.17;87.74;100617.50;4967167;28;20031;-61
2022/09/09 06:50:07;;;;;;;10.75;3.55;;;;;;;15.19;87.98;100612.25;4961334;28;20026;-61
2022/09/09 06:52:33;;;;;;;10.20;3.80;;;;;;;15.20;87.59;100603.53;4948935;28;20089;-61
2022/09/09 06:54:58;;;;;;;11.63;3.72;;;;;;;15.21;87.68;100600.03;4961549;28;20023;-61
2022/09/09 06:57:24;;;;;;;10.32;3.33;;;;;;;15.23;88.14;100609.63;4961936;28;20475;-61
2022/09/09 06:59:49;;;;;;;9.85;3.40;;;;;;;15.25;88.17;100600.03;4961602;28;20406;-61
2022/09/09 07:02:15;;;;;;;11.32;3.42;;;;;;;15.28;88.27;100612.28;4962970;28;20058;-61
2022/09/09 07:04:40;;;;;;;12.27;3.60;;;;;;;15.32;88.02;100608.75;4965226;28;20126;-60
2022/09/09 07:07:05;;;;;;;8.38;3.35;;;;;;;15.36;87.85;100609.66;4960360;28;20034;-61
2022/09/09 07:09:31;;;;;;;14.32;3.97;;;;;;;15.39;88.00;100604.41;4945034;28;20473;-61
2022/09/09 07:11:59;;;;;;;11.40;4.25;;;;;;;15.44;87.63;100613.16;4960292;28;20074;-62
2022/09/09 07:14:24;;;;;;;10.48;3.65;;;;;;;15.47;87.18;100605.28;4966625;28;20037;-60
2022/09/09 07:16:49;;;;;;;10.60;3.90;;;;;;;15.52;86.61;100615.78;4959623;28;20030;-61
2022/09/09 07:19:15;;;;;;;12.07;3.88;;;;;;;15.55;87.45;100623.66;4961421;28;20117;-61
2022/09/09 07:21:40;;;;;;;11.25;3.90;;;;;;;15.59;87.15;100610.50;4960915;28;20165;-61
2022/09/09 07:24:10;;;;;;;12.25;3.72;;;;;;;15.64;86.90;100607.88;4962506;28;20675;-61
2022/09/09 07:26:36;;;;;;;10.48;3.38;;;;;;;15.67;86.26;100601.75;4968179;28;20045;-61
2022/09/09 07:29:02;;;;;;;9.80;3.22;;;;;;;15.69;86.45;100603.50;4970675;28;20027;-60
2022/09/09 07:31:30;;;;;;;8.05;3.45;;;;;;;15.72;86.34;100597.38;4970113;28;20041;-61
2022/09/09 07:33:56;;;;;;;10.63;3.83;;;;;;;15.77;87.15;100603.47;4969148;28;20494;-61
2022/09/09 07:36:26;;;;;;;10.30;3.42;;;;;;;15.82;86.52;100604.41;4968781;28;20039;-60
2022/09/09 07:38:56;;;;;;;10.85;3.65;;;;;;;15.84;85.82;100605.25;4970558;28;20037;-61
2022/09/09 07:41:27;;;;;;;8.45;3.17;;;;;;;15.87;86.13;100615.75;4970549;28;20027;-60
2022/09/09 07:43:56;;;;;;;9.38;3.40;;;;;;;15.89;85.18;100610.50;4963217;28;20038;-61
2022/09/09 07:46:25;;;;;;;10.68;3.65;;;;;;;15.89;85.76;100624.53;4961788;28;20067;-61
2022/09/09 07:48:55;;;;;;;8.95;3.70;;;;;;;15.89;85.00;100616.66;4962896;28;20022;-61
2022/09/09 07:51:27;;;;;;;9.77;3.33;;;;;;;15.90;84.29;100617.50;4961146;28;20389;-61
2022/09/09 07:53:57;;;;;;;9.10;3.20;;;;;;;15.88;84.18;100609.63;4962394;28;20022;-61
2022/09/09 07:56:23;;;;;;;7.25;3.25;;;;;;;15.90;85.10;100607.00;4942454;28;20038;-61
2022/09/09 07:58:49;;;;;;;12.07;3.85;;;;;;;15.92;85.00;100619.25;4950604;28;20034;-61
2022/09/09 08:01:38;;;;;;;11.48;4.00;;;;;;;15.96;85.41;100615.75;4967869;28;20050;-60
2022/09/09 08:04:06;;;;;;;11.05;3.10;;;;;;;15.99;84.07;100612.25;4978838;28;20552;-61
2022/09/09 08:06:36;;;;;;;10.65;3.20;;;;;;;16.02;84.85;100617.50;4982925;28;20039;-65
2022/09/09 08:09:01;;;;;;;10.30;3.70;;;;;;;16.05;84.96;100612.22;4965928;28;20602;-65
2022/09/09 08:11:29;;;;;;;9.93;3.35;;;;;;;16.09;85.18;100608.72;4964465;28;20038;-65
2022/09/09 08:13:55;;;;;;;8.80;3.22;;;;;;;16.14;85.03;100614.81;4968756;28;20062;-65
2022/09/09 08:16:27;;;;;;;9.93;3.33;;;;;;;16.17;84.91;100614.78;4972674;28;20348;-65
2022/09/09 08:18:53;;;;;;;11.07;3.50;;;;;;;16.22;85.09;100609.56;4963561;28;20225;-65
2022/09/09 08:21:23;;;;;;;8.48;3.33;;;;;;;16.26;84.69;100618.28;4964813;28;20418;-65
2022/09/09 08:23:51;;;;;;;12.38;3.45;;;;;;;16.29;83.97;100618.28;4964345;28;20031;-65
2022/09/09 08:26:23;;;;;;;8.57;3.00;;;;;;;16.31;83.13;100624.41;4967255;28;20557;-65
2022/09/09 08:28:51;;;;;;;9.52;3.28;;;;;;;16.34;83.00;100616.50;4973880;28;20027;-65
2022/09/09 08:31:18;;;;;;;8.80;3.08;;;;;;;16.37;83.05;100623.53;4959605;28;20034;-65
2022/09/09 08:33:45;;;;;;;14.85;3.83;;;;;;;16.37;81.88;100621.75;4965508;28;21380;-66
2022/09/09 08:36:15;;;;;;;9.50;3.63;;;;;;;16.38;82.01;100618.25;4962781;28;20494;-65
2022/09/09 08:38:41;;;;;;;7.75;3.03;;;;;;;16.41;81.83;100628.75;4964952;28;20098;-61
2022/09/09 08:41:37;;;;;;;10.75;3.50;;;;;;;16.42;81.52;100627.00;4969094;28;20045;-61
2022/09/09 08:44:22;;;;;;;8.90;2.78;;;;;;;16.46;82.57;100621.72;4971405;28;20517;-61
2022/09/09 08:47:18;;;;;;;8.02;3.25;;;;;;;16.48;82.18;100625.22;4965316;28;20038;-61
2022/09/09 08:49:55;;;;;;;8.38;3.13;;;;;;;16.49;81.58;100633.97;4966094;28;20499;-61
2022/09/09 08:52:30;;;;;;;10.30;3.25;;;;;;;16.49;81.77;100636.59;4963305;28;20482;-61
2022/09/09 08:55:22;;;;;;;7.65;2.85;;;;;;;16.51;81.40;100635.72;4962729;28;20093;-61
2022/09/09 08:57:51;;;;;;;5.35;2.88;;;;;;;16.48;81.06;100634.84;4962597;28;20061;-61
2022/09/09 09:00:17;;;;;;;10.70;3.10;;;;;;;16.48;80.67;100633.13;4967828;28;20113;-60
2022/09/09 09:03:07;;;;;;;12.10;3.75;;;;;;;16.51;81.62;100642.72;4965457;28;20032;-61
2022/09/09 09:05:52;;;;;;;9.85;3.40;;;;;;;16.52;81.33;100647.09;4970353;28;20030;-61
2022/09/09 09:08:32;;;;;;;9.25;3.30;;;;;;;16.55;80.40;100643.59;4961808;28;20433;-65
2022/09/09 09:11:00;;;;;;;9.98;3.38;;;;;;;16.58;80.97;100646.22;4966378;28;20096;-65
2022/09/09 09:13:46;;;;;;;6.68;3.10;;;;;;;16.59;80.95;100643.56;4970361;28;20047;-65
2022/09/09 09:16:32;;;;;;;9.88;2.88;;;;;;;16.63;80.52;100653.22;4974585;28;20397;-65
2022/09/09 09:18:58;;;;;;;9.40;3.08;;;;;;;16.66;80.51;100644.44;4964378;28;20027;-65
2022/09/09 09:21:35;;;;;;;9.45;3.17;;;;;;;16.68;80.54;100642.66;4968657;28;20589;-65
2022/09/09 09:24:01;;;;;;;8.48;3.40;;;;;;;16.72;80.32;100651.44;4961905;28;20059;-66
2022/09/09 09:26:33;;;;;;;9.70;3.40;;;;;;;16.73;80.21;100653.16;4975114;28;20030;-65
2022/09/09 09:29:00;;;;;;;6.88;3.03;;;;;;;16.73;79.93;100659.31;4958822;28;20027;-65
2022/09/09 09:31:26;;;;;;;10.02;3.78;;;;;;;16.74;79.88;100660.16;4977895;28;20625;-66
2022/09/09 09:33:56;;;;;;;10.60;3.20;;;;;;;16.73;79.92;100654.03;4984606;28;20054;-65
2022/09/09 09:36:45;;;;;;;8.77;3.35;;;;;;;16.74;79.80;100654.91;4988999;28;20022;-65
2022/09/09 09:39:36;;;;;;;11.18;3.30;;;;;;;16.74;80.34;100655.78;4979309;28;20065;-65
2022/09/09 09:42:10;;;;;;;12.88;3.88;;;;;;;16.74;80.71;100653.13;4986202;28;20023;-65
2022/09/09 09:44:37;;;;;;;11.18;3.50;;;;;;;16.77;80.83;100649.63;4991712;28;20393;-65
2022/09/09 09:47:08;;;;;;;10.45;3.30;;;;;;;16.81;80.92;100641.69;4985350;28;20031;-65
2022/09/09 09:49:34;;;;;;;8.85;3.50;;;;;;;16.84;80.75;100646.97;4979446;28;20035;-65
2022/09/09 09:52:04;;;;;;;11.90;3.25;;;;;;;16.84;80.72;100646.97;4981933;28;20109;-65
2022/09/09 09:54:41;;;;;;;7.53;3.20;;;;;;;16.85;79.88;100648.69;4974544;28;20034;-65
2022/09/09 09:57:12;;;;;;;12.27;3.40;;;;;;;16.84;79.63;100646.06;4986008;28;20053;-65
2022/09/09 09:59:41;;;;;;;12.27;3.53;;;;;;;16.83;79.30;100639.94;4989956;28;20158;-65
2022/09/09 10:02:26;;;;;;;14.70;3.55;;;;;;;16.84;79.38;100646.97;4962191;28;20053;-65
2022/09/09 10:05:22;;;;;;;8.57;3.20;;;;;;;16.84;80.13;100657.50;4982191;28;20034;-64
2022/09/09 10:08:02;;;;;;;9.80;3.35;;;;;;;16.81;80.63;100646.97;4940254;28;20114;-65
2022/09/09 10:10:42;;;;;;;11.23;3.53;;;;;;;16.77;81.69;100644.38;4975842;28;20042;-64
2022/09/09 10:13:21;;;;;;;6.93;3.00;;;;;;;16.73;81.99;100651.41;4978711;28;20049;-64
2022/09/09 10:16:19;;;;;;;7.35;3.15;;;;;;;16.74;82.50;100661.03;4979226;28;20030;-64
2022/09/09 10:18:57;;;;;;;9.38;3.33;;;;;;;16.73;82.27;100654.03;4967083;28;20120;-66
2022/09/09 10:21:42;;;;;;;9.15;3.33;;;;;;;16.73;82.25;100651.41;4968720;28;20493;-66
2022/09/09 10:24:39;;;;;;;8.90;3.40;;;;;;;16.74;82.27;100650.50;4968720;28;20031;-66
2022/09/09 10:27:16;;;;;;;9.50;3.40;;;;;;;16.76;83.03;100663.69;4971064;28;20416;-66
2022/09/09 10:30:08;;;;;;;10.90;3.33;;;;;;;16.76;83.17;100658.44;4965920;28;20030;-66
2022/09/09 10:32:38;;;;;;;9.38;3.47;;;;;;;16.73;82.83;100674.19;4970420;28;20046;-66
2022/09/09 10:35:27;;;;;;;10.05;3.20;;;;;;;16.68;82.92;100669.84;4974698;28;20053;-65
2022/09/09 10:38:23;;;;;;;8.02;3.53;;;;;;;16.67;83.43;100675.13;4944881;28;20065;-66
2022/09/09 10:40:56;;;;;;;10.55;3.50;;;;;;;16.64;83.86;100665.47;4968508;28;20105;-66
2022/09/09 10:43:27;;;;;;;8.98;3.70;;;;;;;16.64;84.45;100664.59;4976220;28;20034;-66
2022/09/09 10:46:03;;;;;;;8.10;3.60;;;;;;;16.64;83.73;100669.84;4970092;28;20805;-65
2022/09/09 10:48:30;;;;;;;14.02;3.83;;;;;;;16.62;83.70;100671.63;4971027;28;20035;-61
2022/09/09 10:51:14;;;;;;;19.95;6.28;;;;;;;16.59;84.35;100667.25;4970301;28;20050;-61
2022/09/09 10:53:50;;;;;;;11.50;4.72;;;;;;;16.60;83.69;100669.00;4981641;28;20177;-61
2022/09/09 10:56:18;;;;;;;11.57;4.57;;;;;;;16.60;84.02;100658.47;4970785;28;20138;-61
2022/09/09 10:58:52;;;;;;;7.72;3.70;;;;;;;16.62;84.23;100664.59;4978683;28;20436;-61
2022/09/09 11:01:30;;;;;;;10.30;3.47;;;;;;;16.62;84.54;100666.38;4971159;28;20030;-61
2022/09/09 11:04:05;;;;;;;9.18;3.50;;;;;;;16.62;84.46;100666.38;4981585;28;20053;-61
2022/09/09 11:06:42;;;;;;;7.63;3.60;;;;;;;16.64;84.13;100659.31;4966469;28;20030;-61
2022/09/09 11:09:17;;;;;;;8.82;3.40;;;;;;;16.63;84.33;100663.72;4972306;28;20034;-61
2022/09/09 11:11:51;;;;;;;10.07;3.53;;;;;;;16.62;84.68;100658.47;4973563;28;20085;-61
2022/09/09 11:14:31;;;;;;;11.75;3.70;;;;;;;16.62;84.49;100666.38;4978675;28;20498;-61
2022/09/09 11:17:46;;;;;;;8.65;3.55;;;;;;;16.64;84.64;100662.84;4981365;28;20117;-61
2022/09/09 11:20:13;;;;;;;8.45;3.22;;;;;;;16.68;85.47;100666.34;4975408;28;20066;-61
2022/09/09 11:23:02;;;;;;;9.07;3.67;;;;;;;16.71;85.87;100671.56;4981708;28;20033;-61
2022/09/09 11:25:41;;;;;;;9.32;3.97;;;;;;;16.72;85.81;100668.06;4974109;28;20030;-60
2022/09/09 11:28:28;;;;;;;9.02;3.20;;;;;;;16.72;85.55;100657.53;4972817;28;20030;-61
2022/09/09 11:31:12;;;;;;;6.05;3.42;;;;;;;16.74;85.28;100655.78;4984472;28;20022;-60
2022/09/09 11:33:53;;;;;;;7.97;3.38;;;;;;;16.74;84.83;100661.03;4979082;28;20027;-61
2022/09/09 11:36:34;;;;;;;7.60;3.13;;;;;;;16.73;85.12;100659.31;4978930;28;20031;-61
2022/09/09 11:39:36;;;;;;;6.75;3.40;;;;;;;16.74;84.58;100647.00;4991607;28;20034;-61
2022/09/09 11:42:07;;;;;;;9.02;3.45;;;;;;;16.73;83.99;100648.78;4975066;28;20026;-61
2022/09/09 11:44:32;;;;;;;6.03;2.97;;;;;;;16.73;84.12;100647.88;4974634;28;20117;-61